Time;durP1;ratioP1;P1;durP2;ratioP2;P2;SDS_P1;SDS_P2;PMS_P1;PMS_P2;Temp;Humidity;BMP_temperature;BMP_pressure;BME280_temperature;BME280_humidity;BME280_pressure;Samples;Min_cycle;Max_cycle;Signal;HPM_P1;HPM_P2
2022/07/31 00:02:07;;;;;;;13.65;12.35;;;;;;;;;;5039770;28;20429;-83
2022/07/31 00:04:34;;;;;;;14.18;12.68;;;;;;;;;;5009075;28;20457;-83
2022/07/31 00:07:00;;;;;;;12.60;11.40;;;;;;;;;;5039450;28;20438;-83
2022/07/31 00:09:28;;;;;;;14.00;12.70;;;;;;;;;;5032685;28;20471;-82
2022/07/31 00:11:54;;;;;;;14.40;12.90;;;;;;;;;;5040158;28;20431;-83
2022/07/31 00:14:22;;;;;;;12.38;11.18;;;;;;;;;;5035421;28;20433;-81
2022/07/31 00:16:50;;;;;;;12.35;11.02;;;;;;;;;;5002513;28;20489;-80
2022/07/31 00:19:16;;;;;;;10.80;9.80;;;;;;;;;;5033972;28;20449;-81
2022/07/31 00:21:43;;;;;;;11.20;10.10;;;;;;;;;;5035302;28;20425;-81
2022/07/31 00:24:09;;;;;;;11.80;10.70;;;;;;;;;;5041924;28;20435;-81
2022/07/31 00:26:35;;;;;;;11.85;10.75;;;;;;;;;;5042634;28;20429;-81
2022/07/31 00:29:02;;;;;;;12.10;10.80;;;;;;;;;;5046149;28;20434;-80
2022/07/31 00:31:30;;;;;;;12.38;11.18;;;;;;;;;;5044240;28;20418;-82
2022/07/31 00:33:57;;;;;;;14.00;12.60;;;;;;;;;;5044579;28;20416;-82
2022/07/31 00:36:24;;;;;;;13.73;12.32;;;;;;;;;;5042992;28;20419;-81
2022/07/31 00:38:50;;;;;;;14.05;11.90;;;;;;;;;;5042087;28;20427;-81
2022/07/31 00:41:16;;;;;;;12.75;11.55;;;;;;;;;;5041378;28;20429;-83
2022/07/31 00:43:43;;;;;;;13.73;12.10;;;;;;;;;;5042229;28;20422;-82
2022/07/31 00:46:09;;;;;;;15.25;13.75;;;;;;;;;;5040133;28;20417;-82
2022/07/31 00:48:37;;;;;;;15.05;13.60;;;;;;;;;;5019350;28;20434;-83
2022/07/31 00:51:04;;;;;;;19.25;16.95;;;;;;;;;;5037082;28;20519;-82
2022/07/31 00:53:30;;;;;;;18.35;16.45;;;;;;;;;;5037681;28;20431;-82
2022/07/31 00:55:57;;;;;;;18.70;16.80;;;;;;;;;;5040184;28;20417;-83
2022/07/31 00:58:23;;;;;;;18.88;17.15;;;;;;;;;;5037589;28;20435;-83
2022/07/31 01:00:50;;;;;;;20.42;17.13;;;;;;;;;;5043112;28;20426;-82
2022/07/31 01:03:17;;;;;;;19.50;17.60;;;;;;;;;;5007147;28;20421;-83
2022/07/31 01:05:45;;;;;;;15.95;14.00;;;;;;;;;;5039964;28;20446;-83
2022/07/31 01:08:11;;;;;;;21.40;17.27;;;;;;;;;;5038220;28;20434;-82
2022/07/31 01:10:41;;;;;;;20.50;18.50;;;;;;;;;;5019197;28;20423;-83
2022/07/31 01:13:10;;;;;;;18.40;16.60;;;;;;;;;;5037855;28;20431;-83
2022/07/31 01:15:37;;;;;;;18.60;16.80;;;;;;;;;;5039635;28;20444;-83
2022/07/31 01:18:04;;;;;;;22.42;17.13;;;;;;;;;;5037510;28;20441;-82
2022/07/31 01:20:31;;;;;;;18.58;16.77;;;;;;;;;;5035595;28;20423;-83
2022/07/31 01:23:13;;;;;;;17.13;15.03;;;;;;;;;;5036619;28;20437;-83
2022/07/31 01:25:45;;;;;;;16.17;14.57;;;;;;;;;;5037241;28;20415;-83
2022/07/31 01:28:18;;;;;;;16.55;14.95;;;;;;;;;;5035485;28;20429;-83
2022/07/31 01:30:48;;;;;;;17.27;15.50;;;;;;;;;;5040121;28;20419;-83
2022/07/31 01:33:19;;;;;;;18.40;16.23;;;;;;;;;;5040971;28;20500;-83
2022/07/31 01:35:47;;;;;;;14.30;12.80;;;;;;;;;;5037990;28;20438;-83
2022/07/31 01:38:15;;;;;;;15.50;13.63;;;;;;;;;;5037427;28;20803;-82
2022/07/31 01:40:43;;;;;;;15.40;13.68;;;;;;;;;;5039244;28;20430;-82
2022/07/31 01:43:13;;;;;;;14.60;13.10;;;;;;;;;;5036930;28;20440;-82
2022/07/31 01:45:41;;;;;;;14.90;13.33;;;;;;;;;;5036716;28;20935;-83
2022/07/31 01:48:11;;;;;;;14.83;12.93;;;;;;;;;;5039392;28;20429;-82
2022/07/31 01:50:38;;;;;;;15.57;14.07;;;;;;;;;;5035120;28;20441;-82
2022/07/31 01:53:05;;;;;;;14.05;12.55;;;;;;;;;;5042732;28;20442;-83
2022/07/31 01:55:32;;;;;;;14.68;13.25;;;;;;;;;;5038508;28;20468;-82
2022/07/31 01:57:59;;;;;;;16.50;14.80;;;;;;;;;;5038196;28;20441;-82
2022/07/31 02:00:25;;;;;;;12.32;11.10;;;;;;;;;;5039439;28;20419;-83
2022/07/31 02:02:54;;;;;;;14.38;12.98;;;;;;;;;;5022597;28;20522;-82
2022/07/31 02:05:22;;;;;;;15.30;12.63;;;;;;;;;;5035163;28;20516;-81
2022/07/31 02:07:49;;;;;;;15.35;13.88;;;;;;;;;;5039586;28;20429;-83
2022/07/31 02:10:16;;;;;;;16.10;14.43;;;;;;;;;;5035699;28;20424;-83
2022/07/31 02:12:44;;;;;;;16.87;14.27;;;;;;;;;;5039569;28;21399;-83
2022/07/31 02:15:13;;;;;;;14.73;13.32;;;;;;;;;;5022007;28;20417;-82
2022/07/31 02:17:41;;;;;;;14.43;13.02;;;;;;;;;;5008342;28;20437;-83
2022/07/31 02:20:10;;;;;;;16.80;15.00;;;;;;;;;;5039422;28;20424;-83
2022/07/31 02:22:37;;;;;;;15.07;13.55;;;;;;;;;;5039426;28;20431;-83
2022/07/31 02:25:05;;;;;;;14.90;13.40;;;;;;;;;;5042081;28;20502;-84
2022/07/31 02:27:31;;;;;;;16.63;14.90;;;;;;;;;;5043278;28;20442;-81
2022/07/31 02:30:00;;;;;;;16.55;14.95;;;;;;;;;;5041801;28;20409;-81
2022/07/31 02:32:26;;;;;;;16.20;14.60;;;;;;;;;;5025530;28;20499;-81
2022/07/31 02:34:55;;;;;;;17.38;15.43;;;;;;;;;;5042759;28;20420;-81
2022/07/31 02:37:24;;;;;;;18.05;16.35;;;;;;;;;;5024669;28;20927;-83
2022/07/31 02:39:53;;;;;;;19.02;16.08;;;;;;;;;;5040477;28;20788;-81
2022/07/31 02:42:21;;;;;;;15.40;13.90;;;;;;;;;;5043595;28;20513;-81
2022/07/31 02:44:47;;;;;;;18.10;16.20;;;;;;;;;;5025748;28;20943;-81
2022/07/31 02:47:14;;;;;;;15.95;14.15;;;;;;;;;;5045056;28;20828;-81
2022/07/31 02:49:41;;;;;;;14.73;13.18;;;;;;;;;;5042427;28;21095;-83
2022/07/31 02:52:08;;;;;;;13.13;11.82;;;;;;;;;;4994469;28;20425;-82
2022/07/31 02:54:38;;;;;;;15.18;13.57;;;;;;;;;;5024344;28;20466;-82
2022/07/31 02:57:06;;;;;;;15.32;13.73;;;;;;;;;;5038494;28;20443;-81
2022/07/31 02:59:36;;;;;;;14.50;13.20;;;;;;;;;;5042512;28;20948;-83
2022/07/31 03:02:03;;;;;;;14.77;12.82;;;;;;;;;;5044148;28;20443;-83
2022/07/31 03:04:29;;;;;;;16.30;14.70;;;;;;;;;;5045293;28;20431;-81
2022/07/31 03:06:56;;;;;;;15.23;13.63;;;;;;;;;;5042147;28;20493;-81
2022/07/31 03:09:23;;;;;;;14.70;13.30;;;;;;;;;;5044181;28;21242;-82
2022/07/31 03:11:49;;;;;;;14.50;13.00;;;;;;;;;;5037335;28;20445;-83
2022/07/31 03:14:18;;;;;;;15.38;13.77;;;;;;;;;;5039413;28;20505;-80
2022/07/31 03:16:47;;;;;;;15.50;13.90;;;;;;;;;;5043675;28;20425;-81
2022/07/31 03:19:13;;;;;;;16.07;14.37;;;;;;;;;;5024604;28;20523;-80
2022/07/31 03:21:39;;;;;;;15.60;14.00;;;;;;;;;;5040089;28;20435;-82
2022/07/31 03:24:06;;;;;;;16.48;14.88;;;;;;;;;;5040523;28;20433;-81
2022/07/31 03:26:33;;;;;;;17.83;16.00;;;;;;;;;;5041409;28;20429;-81
2022/07/31 03:28:59;;;;;;;16.30;14.60;;;;;;;;;;5041188;28;20427;-81
2022/07/31 03:31:27;;;;;;;17.23;15.60;;;;;;;;;;5023949;28;20487;-81
2022/07/31 03:33:54;;;;;;;18.65;16.75;;;;;;;;;;5028468;28;20417;-81
2022/07/31 03:36:21;;;;;;;16.98;15.32;;;;;;;;;;5043808;28;20427;-82
2022/07/31 03:38:47;;;;;;;17.23;15.45;;;;;;;;;;5025779;28;20424;-83
2022/07/31 03:41:14;;;;;;;18.40;16.30;;;;;;;;;;5041417;28;20996;-83
2022/07/31 03:43:42;;;;;;;16.77;15.07;;;;;;;;;;5041662;28;20440;-80
2022/07/31 03:46:09;;;;;;;18.83;15.57;;;;;;;;;;5038554;28;20427;-83
2022/07/31 03:48:37;;;;;;;16.60;14.90;;;;;;;;;;5021659;28;20439;-84
2022/07/31 03:51:04;;;;;;;14.70;13.30;;;;;;;;;;5039890;28;20434;-83
2022/07/31 03:53:31;;;;;;;14.97;13.57;;;;;;;;;;5038782;28;20430;-82
2022/07/31 03:55:58;;;;;;;14.23;12.83;;;;;;;;;;5040057;28;20434;-82
2022/07/31 03:58:24;;;;;;;14.35;12.85;;;;;;;;;;5035826;28;20783;-83
2022/07/31 04:00:51;;;;;;;13.55;12.07;;;;;;;;;;5036913;28;20431;-83
2022/07/31 04:03:18;;;;;;;17.10;12.65;;;;;;;;;;5042192;28;20434;-83
2022/07/31 04:05:45;;;;;;;14.38;12.93;;;;;;;;;;5038807;28;20409;-83
2022/07/31 04:08:14;;;;;;;15.93;14.18;;;;;;;;;;5039643;28;20795;-83
2022/07/31 04:10:41;;;;;;;14.57;13.17;;;;;;;;;;5042086;28;20491;-81
2022/07/31 04:13:07;;;;;;;14.82;13.32;;;;;;;;;;5038826;28;20469;-80
2022/07/31 04:15:34;;;;;;;15.13;13.00;;;;;;;;;;5042760;28;20429;-82
2022/07/31 04:18:00;;;;;;;15.15;12.70;;;;;;;;;;5010867;28;20428;-82
2022/07/31 04:20:26;;;;;;;13.50;12.20;;;;;;;;;;5038463;28;20417;-81
2022/07/31 04:22:54;;;;;;;14.20;12.80;;;;;;;;;;5042013;28;20446;-81
2022/07/31 04:25:21;;;;;;;13.35;12.00;;;;;;;;;;5034427;28;20440;-81
2022/07/31 04:27:47;;;;;;;13.70;12.30;;;;;;;;;;5040136;28;20438;-82
2022/07/31 04:30:14;;;;;;;14.63;11.38;;;;;;;;;;5025164;28;21084;-82
2022/07/31 04:32:40;;;;;;;13.20;10.98;;;;;;;;;;5041351;28;20441;-81
2022/07/31 04:35:07;;;;;;;11.45;10.35;;;;;;;;;;5044007;28;20411;-82
2022/07/31 04:37:34;;;;;;;11.77;10.00;;;;;;;;;;5011474;28;20895;-82
2022/07/31 04:40:02;;;;;;;12.48;9.98;;;;;;;;;;5040813;28;20923;-81
2022/07/31 04:42:29;;;;;;;11.47;9.20;;;;;;;;;;5036543;28;20508;-82
2022/07/31 04:44:55;;;;;;;11.57;9.77;;;;;;;;;;5039417;28;20403;-82
2022/07/31 04:47:21;;;;;;;10.60;9.60;;;;;;;;;;5042164;28;20428;-81
2022/07/31 04:49:49;;;;;;;9.33;8.53;;;;;;;;;;5021440;28;20495;-82
2022/07/31 04:52:16;;;;;;;9.73;8.73;;;;;;;;;;5040438;28;20430;-81
2022/07/31 04:54:42;;;;;;;9.98;7.80;;;;;;;;;;5039381;28;20441;-84
2022/07/31 04:57:10;;;;;;;10.75;7.50;;;;;;;;;;5042091;28;20444;-81
2022/07/31 04:59:36;;;;;;;11.18;7.72;;;;;;;;;;5038326;28;20423;-82
2022/07/31 05:02:03;;;;;;;8.23;7.40;;;;;;;;;;5040514;28;20451;-82
2022/07/31 05:04:29;;;;;;;9.85;7.05;;;;;;;;;;5041358;28;20930;-82
2022/07/31 05:06:55;;;;;;;7.82;7.13;;;;;;;;;;5040622;28;20423;-81
2022/07/31 05:09:22;;;;;;;8.90;7.57;;;;;;;;;;5042098;28;21025;-82
2022/07/31 05:11:49;;;;;;;8.77;7.60;;;;;;;;;;5039160;28;20493;-82
2022/07/31 05:14:17;;;;;;;8.90;7.80;;;;;;;;;;5039285;28;20452;-81
2022/07/31 05:16:44;;;;;;;8.35;7.50;;;;;;;;;;5037782;28;20426;-82
2022/07/31 05:19:11;;;;;;;11.00;7.53;;;;;;;;;;5037853;28;20939;-82
2022/07/31 05:21:37;;;;;;;9.60;6.95;;;;;;;;;;5041323;28;20435;-82
2022/07/31 05:24:04;;;;;;;9.07;8.18;;;;;;;;;;5040411;28;20908;-82
2022/07/31 05:26:30;;;;;;;9.38;8.35;;;;;;;;;;5021947;28;20430;-82
2022/07/31 05:28:58;;;;;;;10.50;8.65;;;;;;;;;;5038582;28;20516;-82
2022/07/31 05:31:26;;;;;;;9.32;8.43;;;;;;;;;;5035419;28;20946;-81
2022/07/31 05:33:53;;;;;;;9.80;8.30;;;;;;;;;;5040041;28;20968;-82
2022/07/31 05:36:20;;;;;;;10.73;6.87;;;;;;;;;;5005696;28;20419;-82
2022/07/31 05:38:46;;;;;;;9.43;7.05;;;;;;;;;;5036433;28;20429;-81
2022/07/31 05:41:13;;;;;;;6.72;6.07;;;;;;;;;;5041574;28;20415;-81
2022/07/31 05:43:40;;;;;;;7.50;6.75;;;;;;;;;;5038741;28;20434;-81
2022/07/31 05:46:07;;;;;;;8.82;6.82;;;;;;;;;;5037764;28;20443;-82
2022/07/31 05:48:35;;;;;;;11.23;7.00;;;;;;;;;;5040506;28;20457;-81
2022/07/31 05:51:01;;;;;;;8.75;6.75;;;;;;;;;;5042154;28;20410;-81
2022/07/31 05:53:27;;;;;;;7.60;6.90;;;;;;;;;;5040760;28;20433;-81
2022/07/31 05:55:54;;;;;;;7.63;6.82;;;;;;;;;;5043333;28;20431;-81
2022/07/31 05:58:20;;;;;;;7.63;6.72;;;;;;;;;;5038529;28;20431;-82
2022/07/31 06:00:48;;;;;;;6.78;6.18;;;;;;;;;;5044519;28;20417;-82
2022/07/31 06:03:15;;;;;;;7.50;6.70;;;;;;;;;;5013475;28;20448;-81
2022/07/31 06:05:44;;;;;;;9.82;6.50;;;;;;;;;;5043410;28;20515;-82
2022/07/31 06:08:11;;;;;;;7.65;6.40;;;;;;;;;;5042530;28;20438;-81
2022/07/31 06:10:37;;;;;;;6.28;5.32;;;;;;;;;;5044350;28;20413;-82
2022/07/31 06:13:03;;;;;;;7.05;4.90;;;;;;;;;;5019765;28;20431;-81
2022/07/31 06:15:30;;;;;;;6.75;4.88;;;;;;;;;;5044131;28;20421;-82
2022/07/31 06:17:57;;;;;;;8.25;5.00;;;;;;;;;;5040527;28;20428;-82
2022/07/31 06:20:24;;;;;;;5.30;4.80;;;;;;;;;;5040640;28;20892;-82
2022/07/31 06:22:52;;;;;;;8.02;4.90;;;;;;;;;;5039442;28;20424;-82
2022/07/31 06:25:18;;;;;;;8.20;4.75;;;;;;;;;;5043240;28;20426;-82
2022/07/31 06:27:45;;;;;;;7.70;5.60;;;;;;;;;;5039275;28;20442;-81
2022/07/31 06:30:13;;;;;;;6.63;5.00;;;;;;;;;;5041908;28;20426;-82
2022/07/31 06:32:39;;;;;;;5.83;4.80;;;;;;;;;;5044527;28;20422;-82
2022/07/31 06:35:06;;;;;;;6.55;4.80;;;;;;;;;;5043582;28;20411;-82
2022/07/31 06:37:32;;;;;;;6.10;4.63;;;;;;;;;;5046054;28;20476;-82
2022/07/31 06:40:01;;;;;;;6.80;4.90;;;;;;;;;;5043992;28;20412;-82
2022/07/31 06:42:27;;;;;;;6.00;4.90;;;;;;;;;;5040679;28;20454;-82
2022/07/31 06:44:54;;;;;;;7.15;4.97;;;;;;;;;;5045966;28;20417;-82
2022/07/31 06:47:22;;;;;;;6.35;4.60;;;;;;;;;;5041172;28;20525;-81
2022/07/31 06:49:48;;;;;;;7.78;4.80;;;;;;;;;;5044883;28;20430;-81
2022/07/31 06:52:15;;;;;;;7.32;5.45;;;;;;;;;;5011377;28;21118;-81
2022/07/31 06:54:42;;;;;;;5.30;4.28;;;;;;;;;;5042499;28;20431;-81
2022/07/31 06:57:13;;;;;;;6.18;4.22;;;;;;;;;;5010725;28;20852;-81
2022/07/31 06:59:39;;;;;;;6.03;4.50;;;;;;;;;;5046210;28;20427;-83
2022/07/31 07:02:06;;;;;;;7.43;4.50;;;;;;;;;;5037977;28;20986;-82
2022/07/31 07:04:34;;;;;;;7.75;4.20;;;;;;;;;;5040416;28;20440;-81
2022/07/31 07:07:00;;;;;;;8.10;4.40;;;;;;;;;;5045861;28;20416;-81
2022/07/31 07:09:27;;;;;;;6.00;4.53;;;;;;;;;;5025044;28;20436;-81
2022/07/31 07:11:53;;;;;;;5.70;3.88;;;;;;;;;;5040060;28;20421;-81
2022/07/31 07:14:21;;;;;;;6.78;3.70;;;;;;;;;;5044067;28;20411;-81
2022/07/31 07:16:47;;;;;;;6.97;3.42;;;;;;;;;;5040269;28;20440;-81
2022/07/31 07:19:14;;;;;;;4.57;3.70;;;;;;;;;;5042776;28;20934;-83
2022/07/31 07:21:40;;;;;;;6.43;4.00;;;;;;;;;;5010857;28;20427;-81
2022/07/31 07:24:07;;;;;;;6.43;3.58;;;;;;;;;;5041987;28;20465;-81
2022/07/31 07:26:33;;;;;;;6.78;3.53;;;;;;;;;;5039783;28;20424;-83
2022/07/31 07:29:01;;;;;;;7.85;3.40;;;;;;;;;;5042416;28;20442;-81
2022/07/31 07:31:29;;;;;;;5.95;3.40;;;;;;;;;;5040017;28;20427;-83
2022/07/31 07:33:55;;;;;;;5.60;3.60;;;;;;;;;;5043477;28;20442;-80
2022/07/31 07:36:22;;;;;;;4.70;3.20;;;;;;;;;;5040649;28;20427;-82
2022/07/31 07:38:50;;;;;;;3.85;3.45;;;;;;;;;;5041274;28;20419;-83
2022/07/31 07:41:18;;;;;;;4.68;3.50;;;;;;;;;;5038413;28;20431;-84
2022/07/31 07:43:44;;;;;;;6.10;3.20;;;;;;;;;;5041664;28;20433;-83
2022/07/31 07:46:10;;;;;;;4.13;3.58;;;;;;;;;;5044054;28;20423;-82
2022/07/31 07:48:38;;;;;;;6.57;3.38;;;;;;;;;;5043546;28;20461;-81
2022/07/31 07:51:04;;;;;;;4.87;3.60;;;;;;;;;;5037744;28;20956;-80
2022/07/31 07:53:31;;;;;;;5.43;3.10;;;;;;;;;;5021130;28;20477;-83
2022/07/31 07:56:00;;;;;;;6.43;4.13;;;;;;;;;;5037229;28;20479;-83
2022/07/31 07:58:26;;;;;;;5.20;3.90;;;;;;;;;;5038105;28;20439;-82
2022/07/31 08:00:53;;;;;;;6.63;4.07;;;;;;;;;;5040552;28;20941;-81
2022/07/31 08:03:19;;;;;;;4.97;3.80;;;;;;;;;;5043594;28;20411;-82
2022/07/31 08:05:47;;;;;;;6.28;4.00;;;;;;;;;;5036431;28;20422;-84
2022/07/31 08:08:13;;;;;;;5.28;4.00;;;;;;;;;;5041019;28;20422;-81
2022/07/31 08:10:42;;;;;;;5.30;4.15;;;;;;;;;;5040553;28;21027;-82
2022/07/31 08:13:08;;;;;;;5.20;3.65;;;;;;;;;;5038088;28;20442;-82
2022/07/31 08:15:34;;;;;;;6.28;4.20;;;;;;;;;;5021714;28;20431;-81
2022/07/31 08:18:01;;;;;;;4.97;3.90;;;;;;;;;;5040631;28;20431;-81
2022/07/31 08:20:27;;;;;;;8.95;3.97;;;;;;;;;;5042429;28;20422;-82
2022/07/31 08:22:55;;;;;;;5.65;3.80;;;;;;;;;;5039740;28;20430;-82
2022/07/31 08:25:21;;;;;;;5.80;4.10;;;;;;;;;;5041350;28;20804;-81
2022/07/31 08:27:48;;;;;;;4.40;3.80;;;;;;;;;;5038412;28;20435;-82
2022/07/31 08:30:15;;;;;;;6.78;3.90;;;;;;;;;;5022691;28;20492;-81
2022/07/31 08:32:41;;;;;;;5.50;3.57;;;;;;;;;;5040930;28;20450;-82
2022/07/31 08:35:08;;;;;;;5.13;3.60;;;;;;;;;;5038117;28;20409;-82
2022/07/31 08:37:34;;;;;;;5.67;3.80;;;;;;;;;;5040561;28;20420;-82
2022/07/31 08:40:02;;;;;;;4.32;3.55;;;;;;;;;;5041300;28;20430;-82
2022/07/31 08:42:31;;;;;;;6.50;3.77;;;;;;;;;;5038305;28;20471;-82
2022/07/31 08:44:57;;;;;;;3.72;3.33;;;;;;;;;;5032862;28;20429;-81
2022/07/31 08:47:27;;;;;;;4.40;3.40;;;;;;;;;;5040646;28;20466;-82
2022/07/31 08:49:54;;;;;;;4.88;3.58;;;;;;;;;;5040420;28;20432;-82
2022/07/31 08:52:22;;;;;;;4.70;3.28;;;;;;;;;;5020709;28;20429;-82
2022/07/31 08:54:50;;;;;;;6.10;3.60;;;;;;;;;;5035453;28;20468;-81
2022/07/31 08:57:18;;;;;;;3.67;3.33;;;;;;;;;;5041034;28;20421;-80
2022/07/31 08:59:45;;;;;;;4.23;3.40;;;;;;;;;;5033253;28;20442;-81
2022/07/31 09:02:14;;;;;;;5.82;3.53;;;;;;;;;;5041752;28;20478;-81
2022/07/31 09:04:40;;;;;;;5.30;3.40;;;;;;;;;;5010274;28;20907;-80
2022/07/31 09:07:10;;;;;;;5.78;3.70;;;;;;;;;;5042701;28;20892;-80
2022/07/31 09:09:38;;;;;;;6.60;3.80;;;;;;;;;;5041352;28;20411;-80
2022/07/31 09:12:04;;;;;;;3.80;3.40;;;;;;;;;;5017033;28;20521;-80
2022/07/31 09:14:34;;;;;;;3.85;3.45;;;;;;;;;;5041420;28;20415;-82
2022/07/31 09:17:01;;;;;;;4.85;3.70;;;;;;;;;;5040451;28;20956;-82
2022/07/31 09:19:36;;;;;;;5.90;3.80;;;;;;;;;;5041112;28;20438;-80
2022/07/31 09:22:02;;;;;;;4.43;3.90;;;;;;;;;;5031386;28;20530;-82
2022/07/31 09:24:30;;;;;;;3.93;3.13;;;;;;;;;;5005269;28;21017;-82
2022/07/31 09:27:04;;;;;;;4.10;3.37;;;;;;;;;;5020904;28;20431;-82
2022/07/31 09:29:48;;;;;;;4.95;3.75;;;;;;;;;;5018828;28;20433;-82
2022/07/31 09:32:15;;;;;;;4.20;3.90;;;;;;;;;;5040136;28;20417;-82
2022/07/31 09:34:43;;;;;;;4.85;3.75;;;;;;;;;;5038964;28;20452;-82
2022/07/31 09:37:13;;;;;;;3.58;3.25;;;;;;;;;;5038692;28;20462;-81
2022/07/31 09:39:40;;;;;;;6.78;4.00;;;;;;;;;;5034847;28;20440;-82
2022/07/31 09:42:07;;;;;;;4.03;3.63;;;;;;;;;;5036039;28;20436;-82
2022/07/31 09:44:42;;;;;;;4.15;3.75;;;;;;;;;;5002911;28;20431;-82
2022/07/31 09:47:20;;;;;;;5.50;3.78;;;;;;;;;;5039894;28;20432;-80
2022/07/31 09:49:52;;;;;;;6.40;3.97;;;;;;;;;;5038970;28;20433;-82
2022/07/31 09:52:18;;;;;;;6.50;4.03;;;;;;;;;;5037402;28;20438;-83
2022/07/31 09:54:45;;;;;;;4.65;4.25;;;;;;;;;;5036663;28;21069;-80
2022/07/31 09:57:12;;;;;;;4.90;4.10;;;;;;;;;;5038894;28;20426;-81
2022/07/31 09:59:38;;;;;;;5.30;4.30;;;;;;;;;;5038305;28;20561;-80
2022/07/31 10:02:07;;;;;;;5.70;4.13;;;;;;;;;;5034630;28;20433;-80
2022/07/31 10:04:37;;;;;;;5.77;4.30;;;;;;;;;;5019274;28;20425;-80
2022/07/31 10:07:03;;;;;;;5.70;4.55;;;;;;;;;;5039704;28;20425;-81
2022/07/31 10:09:31;;;;;;;5.60;3.90;;;;;;;;;;5006980;28;20425;-81
2022/07/31 10:11:58;;;;;;;6.03;4.20;;;;;;;;;;5031643;28;20801;-81
2022/07/31 10:14:28;;;;;;;4.88;4.10;;;;;;;;;;5033809;28;20434;-80
2022/07/31 10:16:56;;;;;;;6.07;4.05;;;;;;;;;;5031515;28;20919;-80
2022/07/31 10:19:24;;;;;;;5.00;4.35;;;;;;;;;;5033213;28;20446;-80
2022/07/31 10:21:54;;;;;;;4.75;4.20;;;;;;;;;;5005667;28;20427;-81
2022/07/31 10:24:22;;;;;;;5.90;4.38;;;;;;;;;;5039548;28;20430;-81
2022/07/31 10:26:48;;;;;;;5.78;4.75;;;;;;;;;;5006694;28;20490;-80
2022/07/31 10:29:16;;;;;;;7.22;4.72;;;;;;;;;;5020503;28;20421;-81
2022/07/31 10:31:42;;;;;;;5.40;4.40;;;;;;;;;;5018320;28;20426;-82
2022/07/31 10:34:09;;;;;;;6.03;4.45;;;;;;;;;;5038097;28;20438;-81
2022/07/31 10:36:38;;;;;;;6.18;4.35;;;;;;;;;;5037792;28;20423;-81
2022/07/31 10:39:08;;;;;;;4.70;4.20;;;;;;;;;;5040275;28;20442;-81
2022/07/31 10:41:42;;;;;;;6.13;4.10;;;;;;;;;;5041600;28;20432;-80
2022/07/31 10:44:11;;;;;;;4.88;4.47;;;;;;;;;;5040383;28;20469;-80
2022/07/31 10:46:38;;;;;;;5.80;4.40;;;;;;;;;;5044167;28;20430;-80
2022/07/31 10:49:06;;;;;;;16.75;5.22;;;;;;;;;;5044459;28;20429;-80
2022/07/31 10:51:33;;;;;;;17.95;5.80;;;;;;;;;;5041019;28;20495;-80
2022/07/31 10:54:01;;;;;;;7.30;4.40;;;;;;;;;;5045979;28;20529;-79
2022/07/31 10:56:28;;;;;;;7.38;4.93;;;;;;;;;;5045655;28;20465;-80
2022/07/31 10:58:56;;;;;;;5.80;3.70;;;;;;;;;;5047887;28;20435;-80
2022/07/31 11:01:25;;;;;;;5.80;4.00;;;;;;;;;;5027758;28;20437;-80
2022/07/31 11:03:54;;;;;;;5.50;4.30;;;;;;;;;;5042472;28;20439;-80
2022/07/31 11:06:23;;;;;;;6.45;4.30;;;;;;;;;;5045665;28;20982;-80
2022/07/31 11:08:53;;;;;;;5.95;4.70;;;;;;;;;;5046809;28;20513;-79
2022/07/31 11:11:33;;;;;;;5.30;4.40;;;;;;;;;;5046370;28;20436;-80
2022/07/31 11:14:00;;;;;;;5.20;4.10;;;;;;;;;;5032894;28;20459;-80
2022/07/31 11:16:27;;;;;;;5.80;4.10;;;;;;;;;;5043348;28;20433;-80
2022/07/31 11:18:57;;;;;;;5.50;4.70;;;;;;;;;;5016017;28;20771;-80
2022/07/31 11:21:32;;;;;;;7.35;4.85;;;;;;;;;;5020994;28;20431;-80
2022/07/31 11:23:59;;;;;;;7.72;4.40;;;;;;;;;;5047414;28;20492;-80
2022/07/31 11:26:26;;;;;;;5.55;5.05;;;;;;;;;;5029368;28;20912;-80
2022/07/31 11:28:53;;;;;;;8.87;4.93;;;;;;;;;;5045113;28;20437;-80
2022/07/31 11:31:20;;;;;;;10.65;4.30;;;;;;;;;;5049271;28;20431;-80
2022/07/31 11:33:48;;;;;;;8.25;4.82;;;;;;;;;;5025041;28;20795;-79
2022/07/31 11:36:15;;;;;;;5.55;5.00;;;;;;;;;;5034434;28;20437;-80
2022/07/31 11:38:43;;;;;;;7.47;4.70;;;;;;;;;;5045795;28;20428;-80
2022/07/31 11:41:09;;;;;;;7.30;4.75;;;;;;;;;;5045403;28;20409;-80
2022/07/31 11:43:36;;;;;;;6.50;5.00;;;;;;;;;;5044063;28;20435;-80
2022/07/31 11:46:06;;;;;;;7.20;5.00;;;;;;;;;;5044428;28;20435;-82
2022/07/31 11:48:32;;;;;;;4.65;4.25;;;;;;;;;;5045471;28;20477;-80
2022/07/31 11:50:59;;;;;;;6.30;4.60;;;;;;;;;;5033849;28;20437;-80
2022/07/31 11:53:26;;;;;;;5.20;4.80;;;;;;;;;;5042215;28;20515;-80
2022/07/31 11:55:54;;;;;;;6.72;4.70;;;;;;;;;;5043286;28;20436;-80
2022/07/31 11:58:21;;;;;;;6.05;5.10;;;;;;;;;;5042418;28;20437;-80
2022/07/31 12:00:49;;;;;;;5.70;5.00;;;;;;;;;;5039844;28;20428;-80
2022/07/31 12:03:18;;;;;;;7.03;5.20;;;;;;;;;;5042536;28;20450;-80
2022/07/31 12:05:44;;;;;;;5.30;4.80;;;;;;;;;;5039190;28;20438;-80
2022/07/31 12:08:11;;;;;;;5.30;4.65;;;;;;;;;;5045181;28;20469;-81
2022/07/31 12:10:38;;;;;;;5.60;5.10;;;;;;;;;;5041547;28;20417;-81
2022/07/31 12:13:05;;;;;;;6.70;5.30;;;;;;;;;;5040456;28;20940;-80
2022/07/31 12:15:31;;;;;;;6.32;5.35;;;;;;;;;;5040122;28;20439;-79
2022/07/31 12:18:02;;;;;;;6.30;5.70;;;;;;;;;;5042621;28;20435;-79
2022/07/31 12:20:30;;;;;;;12.20;8.70;;;;;;;;;;5040203;28;20449;-80
2022/07/31 12:22:57;;;;;;;11.43;10.00;;;;;;;;;;5044571;28;20479;-79
2022/07/31 12:25:24;;;;;;;10.47;9.47;;;;;;;;;;5041526;28;20417;-80
2022/07/31 12:27:52;;;;;;;11.73;10.10;;;;;;;;;;5041926;28;20446;-79
2022/07/31 12:30:21;;;;;;;12.73;10.30;;;;;;;;;;5031778;28;20436;-80
2022/07/31 12:32:48;;;;;;;11.25;10.13;;;;;;;;;;5044995;28;20458;-79
2022/07/31 12:35:14;;;;;;;11.90;10.70;;;;;;;;;;5039655;28;20782;-82
2022/07/31 12:37:46;;;;;;;11.57;10.50;;;;;;;;;;5037693;28;21017;-82
2022/07/31 12:40:23;;;;;;;11.25;10.15;;;;;;;;;;5024177;28;20942;-82
2022/07/31 12:42:50;;;;;;;13.10;10.68;;;;;;;;;;5042839;28;20441;-82
2022/07/31 12:45:20;;;;;;;13.27;11.48;;;;;;;;;;5040234;28;20431;-82
2022/07/31 12:47:46;;;;;;;11.25;10.15;;;;;;;;;;5046199;28;20413;-81
2022/07/31 12:50:12;;;;;;;12.15;10.40;;;;;;;;;;5046550;28;20420;-81
2022/07/31 12:52:39;;;;;;;11.63;10.52;;;;;;;;;;5029869;28;20942;-81
2022/07/31 12:55:09;;;;;;;13.13;10.85;;;;;;;;;;5011929;28;20954;-82
2022/07/31 12:57:35;;;;;;;12.88;11.68;;;;;;;;;;5041506;28;20490;-80
2022/07/31 13:00:02;;;;;;;12.65;10.90;;;;;;;;;;5044236;28;20404;-81
2022/07/31 13:02:30;;;;;;;12.35;10.88;;;;;;;;;;5044225;28;20506;-81
2022/07/31 13:04:56;;;;;;;11.35;9.57;;;;;;;;;;5042579;28;20425;-81
2022/07/31 13:07:23;;;;;;;8.60;7.80;;;;;;;;;;5044394;28;20417;-82
2022/07/31 13:09:49;;;;;;;8.68;6.30;;;;;;;;;;5043163;28;20439;-81
2022/07/31 13:12:17;;;;;;;8.05;6.60;;;;;;;;;;5045369;28;20904;-81
2022/07/31 13:14:44;;;;;;;7.07;6.37;;;;;;;;;;5044637;28;20415;-81
2022/07/31 13:17:11;;;;;;;11.10;7.00;;;;;;;;;;5046532;28;20415;-81
2022/07/31 13:19:39;;;;;;;8.77;6.63;;;;;;;;;;5042992;28;20417;-81
2022/07/31 13:22:06;;;;;;;7.40;6.60;;;;;;;;;;5044054;28;20438;-82
2022/07/31 13:24:34;;;;;;;7.25;6.55;;;;;;;;;;5044726;28;20417;-82
2022/07/31 13:27:00;;;;;;;7.78;6.68;;;;;;;;;;5039968;28;20464;-83
2022/07/31 13:29:28;;;;;;;9.73;8.65;;;;;;;;;;5043125;28;20424;-83
2022/07/31 13:31:55;;;;;;;11.23;8.52;;;;;;;;;;5044637;28;20428;-81
2022/07/31 13:34:21;;;;;;;9.90;8.07;;;;;;;;;;5045512;28;20417;-82
2022/07/31 13:36:47;;;;;;;9.48;8.55;;;;;;;;;;5040685;28;20427;-81
2022/07/31 13:39:14;;;;;;;12.68;8.90;;;;;;;;;;5044191;28;20882;-82
2022/07/31 13:41:41;;;;;;;9.23;8.20;;;;;;;;;;5041210;28;20418;-81
2022/07/31 13:44:08;;;;;;;10.82;9.82;;;;;;;;;;5044233;28;20424;-83
2022/07/31 13:46:36;;;;;;;12.88;10.90;;;;;;;;;;5041287;28;20532;-82
2022/07/31 13:49:06;;;;;;;13.27;10.20;;;;;;;;;;5041323;28;20443;-83
2022/07/31 13:51:33;;;;;;;11.25;10.13;;;;;;;;;;5042315;28;20421;-83
2022/07/31 13:53:59;;;;;;;14.35;12.02;;;;;;;;;;5040357;28;20444;-82
2022/07/31 13:56:26;;;;;;;13.68;12.38;;;;;;;;;;5039200;28;20844;-80
2022/07/31 13:58:54;;;;;;;14.15;12.85;;;;;;;;;;5039039;28;20437;-82
2022/07/31 14:01:22;;;;;;;15.27;13.77;;;;;;;;;;5041188;28;20520;-82
2022/07/31 14:03:50;;;;;;;14.68;13.30;;;;;;;;;;5040952;28;20413;-81
2022/07/31 14:06:16;;;;;;;15.98;12.82;;;;;;;;;;5040919;28;20415;-81
2022/07/31 14:08:42;;;;;;;13.27;12.07;;;;;;;;;;5042480;28;20432;-82
2022/07/31 14:11:09;;;;;;;15.45;14.05;;;;;;;;;;5039144;28;20427;-81
2022/07/31 14:13:35;;;;;;;15.38;13.80;;;;;;;;;;5042457;28;20429;-82
2022/07/31 14:16:03;;;;;;;13.57;12.27;;;;;;;;;;5046806;28;20425;-82
2022/07/31 14:18:30;;;;;;;13.27;12.05;;;;;;;;;;5043037;28;20457;-81
2022/07/31 14:20:58;;;;;;;15.02;13.63;;;;;;;;;;5045568;28;20422;-84
2022/07/31 14:23:25;;;;;;;15.38;13.88;;;;;;;;;;5036519;28;20442;-80
2022/07/31 14:25:51;;;;;;;15.02;13.60;;;;;;;;;;5044988;28;20993;-81
2022/07/31 14:28:18;;;;;;;15.07;13.68;;;;;;;;;;5045281;28;20417;-82
2022/07/31 14:30:46;;;;;;;14.10;12.60;;;;;;;;;;5046979;28;20417;-82
2022/07/31 14:33:12;;;;;;;14.03;11.93;;;;;;;;;;5041734;28;20461;-81